createdAt,value
2022-11-24T00:01:22.018Z,95160.42
2022-11-24T00:03:57.464Z,95163.56
2022-11-24T00:06:26.129Z,95160.09
2022-11-24T00:08:54.846Z,95160.08
2022-11-24T00:11:25.731Z,95161.55
2022-11-24T00:13:53.998Z,95154.17
2022-11-24T00:16:25.832Z,95159.98
2022-11-24T00:18:55.878Z,95167.80
2022-11-24T00:21:25.511Z,95168.98
2022-11-24T00:23:53.781Z,95166.09
2022-11-24T00:26:25.578Z,95165.84
2022-11-24T00:28:55.642Z,95166.37
2022-11-24T00:31:27.602Z,95170.30
2022-11-24T00:33:59.827Z,95169.92
2022-11-24T00:36:30.978Z,95167.71
2022-11-24T00:39:01.830Z,95169.73
2022-11-24T00:41:31.218Z,95167.56
2022-11-24T00:43:59.817Z,95175.66
2022-11-24T00:46:28.613Z,95176.54
2022-11-24T00:49:00.534Z,95177.69
2022-11-24T00:51:30.436Z,95177.73
2022-11-24T00:54:00.487Z,95179.11
2022-11-24T00:56:29.778Z,95177.64
2022-11-24T00:58:58.250Z,95176.39
2022-11-24T01:01:34.429Z,95173.83
2022-11-24T01:04:02.588Z,95178.48
2022-11-24T01:06:34.023Z,95181.90
2022-11-24T01:09:03.514Z,95184.98
2022-11-24T01:11:54.064Z,95188.20
2022-11-24T01:14:23.659Z,95187.91
2022-11-24T01:16:52.617Z,95186.38
2022-11-24T01:19:21.229Z,95186.38
2022-11-24T01:21:49.630Z,95191.93
2022-11-24T01:24:18.173Z,95191.05
2022-11-24T01:26:46.505Z,95189.95
2022-11-24T01:29:14.650Z,95190.89
2022-11-24T01:31:42.409Z,95191.94
2022-11-24T01:34:10.255Z,95194.20
2022-11-24T01:36:38.207Z,95194.60
2022-11-24T01:39:06.077Z,95192.61
2022-11-24T01:41:35.309Z,95190.46
2022-11-24T01:44:28.159Z,95190.95
2022-11-24T01:47:08.381Z,95189.75
2022-11-24T01:49:44.221Z,95188.27
2022-11-24T01:52:19.913Z,95191.39
2022-11-24T01:54:55.080Z,95193.42
2022-11-24T01:57:27.679Z,95192.45
2022-11-24T02:00:02.146Z,95193.32
2022-11-24T02:02:43.321Z,95189.00
2022-11-24T02:05:21.455Z,95193.42
2022-11-24T02:07:51.707Z,95194.06
2022-11-24T02:10:20.513Z,95192.23
2022-11-24T02:12:53.520Z,95193.04
2022-11-24T02:15:22.597Z,95193.52
2022-11-24T02:17:50.379Z,95192.51
2022-11-24T02:20:18.617Z,95196.92
2022-11-24T02:22:57.337Z,95199.48
2022-11-24T02:25:42.684Z,95200.91
2022-11-24T02:28:16.041Z,95202.30
2022-11-24T02:30:44.674Z,95202.51
2022-11-24T02:33:13.496Z,95199.84
2022-11-24T02:35:41.388Z,95198.98
2022-11-24T02:38:13.636Z,95200.80
2022-11-24T02:40:47.539Z,95201.03
2022-11-24T02:43:22.134Z,95202.90
2022-11-24T02:45:50.206Z,95200.81
2022-11-24T02:48:18.124Z,95202.13
2022-11-24T02:50:45.989Z,95200.51
2022-11-24T02:53:13.727Z,95204.43
2022-11-24T02:55:41.526Z,95206.36
2022-11-24T02:58:09.561Z,95212.08
2022-11-24T03:00:37.646Z,95211.33
2022-11-24T03:03:05.737Z,95209.39
2022-11-24T03:05:33.573Z,95204.32
2022-11-24T03:08:01.402Z,95205.87
2022-11-24T03:10:29.212Z,95205.34
2022-11-24T03:12:57.326Z,95205.80
2022-11-24T03:15:25.111Z,95207.08
2022-11-24T03:17:55.671Z,95208.44
2022-11-24T03:20:24.147Z,95205.00
2022-11-24T03:22:52.072Z,95205.52
2022-11-24T03:25:19.870Z,95206.06
2022-11-24T03:27:48.066Z,95211.04
2022-11-24T03:30:16.411Z,95207.21
2022-11-24T03:32:44.186Z,95202.23
2022-11-24T03:35:12.156Z,95208.35
2022-11-24T03:37:39.868Z,95208.07
2022-11-24T03:40:08.123Z,95207.91
2022-11-24T03:42:35.965Z,95210.98
2022-11-24T03:45:30.023Z,95212.00
2022-11-24T03:47:52.393Z,95215.86
2022-11-24T03:50:20.169Z,95213.31
2022-11-24T03:52:47.933Z,95215.02
2022-11-24T03:55:15.883Z,95217.85
2022-11-24T03:57:43.621Z,95220.00
2022-11-24T04:00:12.415Z,95214.13
2022-11-24T04:02:40.314Z,95216.27
2022-11-24T04:05:08.422Z,95212.08
2022-11-24T04:07:36.367Z,95215.22
2022-11-24T04:10:05.186Z,95220.80
2022-11-24T04:12:47.981Z,95227.36
2022-11-24T04:15:18.474Z,95225.97
2022-11-24T04:17:50.030Z,95228.17
2022-11-24T04:20:18.039Z,95226.30
2022-11-24T04:22:45.846Z,95227.55
2022-11-24T04:25:17.508Z,95231.30
2022-11-24T04:27:46.521Z,95230.44
2022-11-24T04:30:14.358Z,95227.23
2022-11-24T04:32:42.504Z,95227.80
2022-11-24T04:35:13.342Z,95229.52
2022-11-24T04:37:41.636Z,95230.17
2022-11-24T04:40:11.209Z,95230.34
2022-11-24T04:42:39.129Z,95232.73
2022-11-24T04:45:08.119Z,95233.02
2022-11-24T04:47:35.957Z,95236.55
2022-11-24T04:50:04.861Z,95234.91
2022-11-24T04:52:32.625Z,95237.44
2022-11-24T04:55:00.357Z,95236.36
2022-11-24T04:57:28.365Z,95243.58
2022-11-24T04:59:56.310Z,95243.78
2022-11-24T05:02:24.576Z,95248.42
2022-11-24T05:04:52.553Z,95249.34
2022-11-24T05:07:20.478Z,95253.69
2022-11-24T05:10:05.263Z,95251.37
2022-11-24T05:12:33.604Z,95255.02
2022-11-24T05:15:02.861Z,95252.89
2022-11-24T05:17:32.263Z,95258.86
2022-11-24T05:20:00.523Z,95264.65
2022-11-24T05:22:29.867Z,95265.19
2022-11-24T05:24:58.736Z,95266.73
2022-11-24T05:27:26.584Z,95269.77
2022-11-24T05:29:54.545Z,95271.46
2022-11-24T05:32:22.343Z,95273.77
2022-11-24T05:34:50.567Z,95278.49
2022-11-24T05:37:18.317Z,95280.96
2022-11-24T05:39:46.089Z,95286.13
2022-11-24T05:42:27.220Z,95286.30
2022-11-24T05:44:55.233Z,95291.71
2022-11-24T05:47:23.920Z,95293.40
2022-11-24T05:49:52.019Z,95295.15
2022-11-24T05:52:19.856Z,95305.70
2022-11-24T05:54:47.810Z,95306.65
2022-11-24T05:57:17.341Z,95311.48
2022-11-24T05:59:45.524Z,95315.27
2022-11-24T06:02:14.121Z,95318.96
2022-11-24T06:04:42.010Z,95320.93
2022-11-24T06:07:12.112Z,95326.15
2022-11-24T06:09:41.285Z,95327.23
2022-11-24T06:12:13.369Z,95330.33
2022-11-24T06:14:41.770Z,95330.67
2022-11-24T06:17:10.580Z,95337.91
2022-11-24T06:19:41.929Z,95339.36
2022-11-24T06:22:10.003Z,95338.02
2022-11-24T06:24:37.923Z,95341.34
2022-11-24T06:27:08.806Z,95344.44
2022-11-24T06:29:38.137Z,95347.65
2022-11-24T06:32:06.367Z,95351.14
2022-11-24T06:34:34.628Z,95354.30
2022-11-24T06:37:02.849Z,95360.66
2022-11-24T06:39:30.860Z,95364.04
2022-11-24T06:41:58.791Z,95363.65
2022-11-24T06:44:26.809Z,95367.77
2022-11-24T06:46:56.091Z,95368.64
2022-11-24T06:49:24.491Z,95370.69
2022-11-24T06:51:54.709Z,95376.77
2022-11-24T06:54:23.221Z,95379.05
2022-11-24T06:56:58.913Z,95381.39
2022-11-24T06:59:29.605Z,95389.35
2022-11-24T07:01:57.551Z,95393.79
2022-11-24T07:04:28.464Z,95393.83
2022-11-24T07:07:21.817Z,95394.66
2022-11-24T07:10:18.214Z,95397.70
2022-11-24T07:13:13.921Z,95401.72
2022-11-24T07:15:51.257Z,95406.90
2022-11-24T07:18:26.432Z,95402.74
2022-11-24T07:21:01.777Z,95403.72
2022-11-24T07:23:54.121Z,95407.59
2022-11-24T07:26:25.815Z,95405.05
2022-11-24T07:29:02.172Z,95405.91
2022-11-24T07:31:46.352Z,95410.28
2022-11-24T07:34:50.024Z,95413.11
2022-11-24T07:39:03.027Z,95416.58
2022-11-24T07:42:19.924Z,95421.63
2022-11-24T07:46:16.406Z,95422.21
2022-11-24T07:49:13.275Z,95423.60
2022-11-24T07:53:35.802Z,95429.41
2022-11-24T08:12:19.303Z,95441.57
2022-11-24T08:19:19.510Z,95452.75
2022-11-24T08:22:40.484Z,95451.23
2022-11-24T08:25:29.546Z,95455.61
2022-11-24T08:28:31.670Z,95457.06
2022-11-24T08:31:52.001Z,95459.06
2022-11-24T08:35:23.557Z,95459.05
2022-11-24T08:38:28.355Z,95462.84
2022-11-24T08:41:27.173Z,95462.49
2022-11-24T08:44:30.645Z,95469.70
2022-11-24T08:47:47.147Z,95470.27
2022-11-24T08:58:25.664Z,95466.59
2022-11-24T09:01:26.625Z,95470.05
2022-11-24T09:05:01.082Z,95471.34
2022-11-24T09:05:07.269Z,95476.40
2022-11-24T09:54:58.680Z,95484.13
2022-11-24T10:30:13.174Z,95495.89
2022-11-24T10:32:47.074Z,95500.05
2022-11-24T10:35:36.903Z,95498.54
2022-11-24T10:38:23.078Z,95500.92
2022-11-24T10:41:02.548Z,95501.21
2022-11-24T10:43:40.939Z,95500.36
2022-11-24T10:46:19.332Z,95505.73
2022-11-24T10:49:45.433Z,95507.94
2022-11-24T10:52:06.691Z,95507.54
2022-11-24T10:54:57.537Z,95512.06
2022-11-24T10:57:40.738Z,95513.23
2022-11-24T11:00:56.344Z,95514.48
2022-11-24T11:09:33.525Z,95515.32
2022-11-24T11:48:50.074Z,95527.13
2022-11-24T12:12:39.801Z,95543.15
2022-11-24T12:15:36.098Z,95546.77
2022-11-24T12:18:56.530Z,95545.95
2022-11-24T12:21:39.526Z,95547.97
2022-11-24T12:24:28.660Z,95552.69
2022-11-24T12:27:05.911Z,95551.31
2022-11-24T12:29:57.533Z,95558.55
2022-11-24T12:33:02.807Z,95561.55
2022-11-24T12:35:43.394Z,95563.23
2022-11-24T12:38:56.557Z,95565.64
2022-11-24T12:41:46.290Z,95564.54
2022-11-24T12:44:47.419Z,95567.61
2022-11-24T12:47:54.771Z,95570.41
2022-11-24T12:51:28.314Z,95571.45
2022-11-24T12:54:14.680Z,95574.14
2022-11-24T12:57:24.251Z,95575.91
2022-11-24T13:04:20.604Z,95577.45
2022-11-24T13:07:17.981Z,95581.56
2022-11-24T13:10:34.878Z,95584.05
2022-11-24T13:13:32.379Z,95583.84
2022-11-24T13:16:59.263Z,95587.28
2022-11-24T13:19:28.449Z,95586.92
2022-11-24T13:22:08.673Z,95589.37
2022-11-24T13:24:49.622Z,95590.85
2022-11-24T13:27:27.807Z,95591.89
2022-11-24T13:30:14.952Z,95593.09
2022-11-24T13:45:49.988Z,95600.79
2022-11-24T13:50:05.725Z,95601.43
2022-11-24T15:11:50.513Z,95669.81
2022-11-24T15:14:39.011Z,95673.33
2022-11-24T15:17:19.501Z,95675.19
2022-11-24T15:19:55.126Z,95679.80
2022-11-24T15:22:46.132Z,95681.12
2022-11-24T15:25:34.568Z,95679.07
2022-11-24T15:28:03.345Z,95678.31
2022-11-24T15:30:37.206Z,95680.42
2022-11-24T15:33:18.154Z,95684.21
2022-11-24T15:35:48.852Z,95683.27
2022-11-24T15:38:17.961Z,95683.10
2022-11-24T15:40:48.779Z,95689.70
2022-11-24T15:53:39.905Z,95706.11
2022-11-24T15:56:26.649Z,95710.77
2022-11-24T15:59:27.186Z,95712.52
2022-11-24T16:02:05.988Z,95712.20
2022-11-24T16:04:41.908Z,95719.86
2022-11-24T16:07:17.669Z,95717.70
2022-11-24T16:09:45.686Z,95716.89
2022-11-24T16:12:13.724Z,95726.38
2022-11-24T16:14:41.675Z,95731.64
2022-11-24T16:17:09.501Z,95730.41
2022-11-24T16:19:41.759Z,95730.40
2022-11-24T16:22:14.243Z,95733.34
2022-11-24T16:24:42.665Z,95730.74
2022-11-24T16:27:11.794Z,95730.69
2022-11-24T16:29:40.412Z,95735.94
2022-11-24T16:32:08.284Z,95733.20
2022-11-24T16:34:36.528Z,95734.19
2022-11-24T16:37:04.608Z,95736.16
2022-11-24T16:39:32.356Z,95736.02
2022-11-24T16:42:00.228Z,95737.34
2022-11-24T16:44:28.215Z,95741.73
2022-11-24T16:46:57.213Z,95741.74
2022-11-24T16:49:25.280Z,95741.13
2022-11-24T16:51:53.606Z,95744.86
2022-11-24T16:54:21.763Z,95745.07
2022-11-24T16:56:49.607Z,95748.92
2022-11-24T16:59:18.046Z,95746.66
2022-11-24T17:01:46.852Z,95748.66
2022-11-24T17:04:15.145Z,95747.96
2022-11-24T17:06:43.219Z,95749.96
2022-11-24T17:09:12.275Z,95751.14
2022-11-24T17:11:40.184Z,95756.41
2022-11-24T17:14:10.566Z,95752.67
2022-11-24T17:16:39.113Z,95753.92
2022-11-24T17:19:07.030Z,95756.73
2022-11-24T17:21:35.142Z,95759.73
2022-11-24T17:24:05.828Z,95760.59
2022-11-24T17:26:35.151Z,95760.88
2022-11-24T17:29:03.447Z,95764.62
2022-11-24T17:31:33.332Z,95764.71
2022-11-24T17:34:03.255Z,95769.40
2022-11-24T17:36:33.360Z,95771.95
2022-11-24T17:39:04.743Z,95773.33
2022-11-24T17:41:33.886Z,95772.73
2022-11-24T17:44:01.740Z,95770.56
2022-11-24T17:46:31.046Z,95770.16
2022-11-24T17:48:58.982Z,95772.95
2022-11-24T17:51:27.399Z,95776.20
2022-11-24T17:53:57.316Z,95778.86
2022-11-24T17:56:27.458Z,95778.50
2022-11-24T17:58:57.742Z,95778.09
2022-11-24T18:01:28.449Z,95777.55
2022-11-24T18:03:56.428Z,95777.44
2022-11-24T18:06:25.602Z,95779.14
2022-11-24T18:08:54.221Z,95775.35
2022-11-24T18:11:30.493Z,95777.59
2022-11-24T18:14:02.562Z,95779.84
2022-11-24T18:16:33.305Z,95779.70
2022-11-24T18:19:11.440Z,95784.36
2022-11-24T18:21:42.650Z,95777.13
2022-11-24T18:24:12.244Z,95785.81
2022-11-24T18:26:42.044Z,95784.48
2022-11-24T18:29:11.430Z,95784.16
2022-11-24T18:31:40.112Z,95780.56
2022-11-24T18:34:08.279Z,95779.20
2022-11-24T18:36:36.718Z,95777.09
2022-11-24T18:39:07.658Z,95778.96
2022-11-24T18:41:37.069Z,95778.21
2022-11-24T18:44:08.242Z,95782.48
2022-11-24T18:46:37.787Z,95782.28
2022-11-24T18:49:07.393Z,95782.66
2022-11-24T18:51:35.802Z,95787.36
2022-11-24T18:54:05.605Z,95795.48
2022-11-24T18:56:33.954Z,95793.46
2022-11-24T18:59:01.769Z,95794.98
2022-11-24T19:01:30.036Z,95794.66
2022-11-24T19:04:01.727Z,95797.01
2022-11-24T19:06:34.410Z,95802.98
2022-11-24T19:09:07.578Z,95804.14
2022-11-24T19:11:38.362Z,95805.89
2022-11-24T19:14:08.563Z,95808.66
2022-11-24T19:16:36.558Z,95810.71
2022-11-24T19:19:05.009Z,95809.90
2022-11-24T19:21:37.177Z,95813.40
2022-11-24T19:24:07.371Z,95815.87
2022-11-24T19:26:35.348Z,95817.05
2022-11-24T19:29:04.849Z,95820.27
2022-11-24T19:31:33.286Z,95817.57
2022-11-24T19:34:03.137Z,95824.09
2022-11-24T19:36:31.632Z,95824.27
2022-11-24T19:38:59.867Z,95826.80
2022-11-24T19:41:32.147Z,95829.92
2022-11-24T19:44:00.215Z,95832.98
2022-11-24T19:46:29.886Z,95838.80
2022-11-24T19:49:01.693Z,95842.71
2022-11-24T19:51:33.339Z,95845.93
2022-11-24T19:54:02.446Z,95848.66
2022-11-24T19:56:34.817Z,95849.41
2022-11-24T19:59:05.137Z,95851.23
2022-11-24T20:01:37.484Z,95852.24
2022-11-24T20:04:08.438Z,95854.15
2022-11-24T20:06:39.661Z,95854.95
2022-11-24T20:09:10.542Z,95860.61
2022-11-24T20:11:38.860Z,95857.64
2022-11-24T20:14:08.409Z,95862.85
2022-11-24T20:16:36.832Z,95866.14
2022-11-24T20:19:08.565Z,95867.06
2022-11-24T20:21:37.923Z,95871.48
2022-11-24T20:24:11.220Z,95872.75
2022-11-24T20:26:43.184Z,95871.75
2022-11-24T20:29:12.927Z,95871.44
2022-11-24T20:31:43.850Z,95876.76
2022-11-24T20:34:12.652Z,95876.05
2022-11-24T20:36:42.467Z,95878.98
2022-11-24T20:39:16.584Z,95882.27
2022-11-24T20:41:45.672Z,95884.96
2022-11-24T20:44:16.143Z,95888.15
2022-11-24T20:46:45.848Z,95895.72
2022-11-24T20:49:17.363Z,95894.21
2022-11-24T20:51:48.689Z,95902.36
2022-11-24T20:54:18.573Z,95903.33
2022-11-24T20:56:47.552Z,95905.06
2022-11-24T20:59:21.458Z,95906.02
2022-11-24T21:01:51.192Z,95913.26
2022-11-24T21:04:23.216Z,95911.31
2022-11-24T21:06:51.083Z,95909.30
2022-11-24T21:09:19.546Z,95912.38
2022-11-24T21:11:48.245Z,95911.58
2022-11-24T21:14:16.078Z,95913.22
2022-11-24T21:16:44.685Z,95910.61
2022-11-24T21:19:14.757Z,95909.89
2022-11-24T21:21:43.346Z,95913.79
2022-11-24T21:24:21.650Z,95912.74
2022-11-24T21:26:52.600Z,95912.94
2022-11-24T21:29:23.658Z,95918.27
2022-11-24T21:31:52.589Z,95915.72
2022-11-24T21:34:20.573Z,95918.58
2022-11-24T21:36:49.417Z,95921.77
2022-11-24T21:39:17.693Z,95920.30
2022-11-24T21:41:45.522Z,95923.33
2022-11-24T21:44:13.924Z,95927.05
2022-11-24T21:46:48.049Z,95922.83
2022-11-24T21:49:18.963Z,95928.03
2022-11-24T21:51:47.311Z,95932.72
2022-11-24T21:54:15.072Z,95937.41
2022-11-24T21:56:42.868Z,95938.09
2022-11-24T21:59:10.634Z,95942.20
2022-11-24T22:01:38.738Z,95947.83
2022-11-24T22:04:09.677Z,95947.38
2022-11-24T22:06:37.605Z,95951.99
2022-11-24T22:09:05.724Z,95952.44
2022-11-24T22:11:33.750Z,95956.08
2022-11-24T22:14:01.695Z,95954.94
2022-11-24T22:16:29.815Z,95953.91
2022-11-24T22:18:59.953Z,95955.63
2022-11-24T22:21:33.174Z,95956.86
2022-11-24T22:24:01.963Z,95957.00
2022-11-24T22:26:30.676Z,95959.91
2022-11-24T22:28:58.921Z,95962.35
2022-11-24T22:31:29.805Z,95965.70
2022-11-24T22:34:01.207Z,95963.58
2022-11-24T22:36:30.581Z,95965.50
2022-11-24T22:39:06.741Z,95964.17
2022-11-24T22:41:35.709Z,95963.52
2022-11-24T22:44:04.661Z,95961.20
2022-11-24T22:46:32.984Z,95962.96
2022-11-24T22:49:04.714Z,95964.53
2022-11-24T22:51:34.822Z,95964.58
2022-11-24T22:54:05.095Z,95970.58
2022-11-24T22:56:34.275Z,95967.86
2022-11-24T22:59:03.210Z,95971.17
2022-11-24T23:01:36.259Z,95978.08
2022-11-24T23:04:04.980Z,95977.58
2022-11-24T23:06:33.835Z,95977.79
2022-11-24T23:09:03.500Z,95977.42
2022-11-24T23:11:38.226Z,95978.11
2022-11-24T23:14:12.281Z,95978.45
2022-11-24T23:16:41.044Z,95981.94
2022-11-24T23:19:09.242Z,95985.19
2022-11-24T23:21:38.524Z,95988.20
2022-11-24T23:24:08.150Z,95992.08
2022-11-24T23:26:38.831Z,95995.05
2022-11-24T23:29:07.412Z,95994.90
2022-11-24T23:31:35.553Z,95994.27
2022-11-24T23:34:03.979Z,95999.71
2022-11-24T23:36:33.216Z,95997.95
2022-11-24T23:39:03.135Z,95999.41
2022-11-24T23:41:33.230Z,96002.17
2022-11-24T23:44:01.056Z,96002.92
2022-11-24T23:46:29.542Z,96008.59
2022-11-24T23:48:57.820Z,96010.51
2022-11-24T23:51:28.563Z,96014.91
2022-11-24T23:53:57.572Z,96021.95
2022-11-24T23:56:28.327Z,96020.52
2022-11-24T23:58:56.040Z,96022.19
